MyMeetScores TOP 100 TOP TEAMS UPCOMING MEETS COMPLETED MEETS LATEST MEETS ADD SCORES SUPPORT SHOP
Unique Gifts for your GymnastShop@
MyMeetScores
 
Sophia Castelino, Midwest Elite Gymnastics Academy - MyMeetScores.com
Sophia Castelino
Midwest Elite Gymnastics Academy
Personal Bests
Level Vault Bars Beam Floor AA
3 9.800 9.775 9.675 9.675 38.900
4 9.500 9.325 9.800 9.650 38.275
5 9.250 8.875 8.875 9.325 36.325
6 9.650 8.850 9.150 9.400 36.875
7 9.550 9.275 9.475 9.675 37.350
Scores on America's Top 100as of 01.28.2023
Year Level Vault Bars Beam Floor AA
2018 338.900
2020 69.650, 9.625

Click here to view our exclusive Top 100 Collection
Meet Scores
Date Meet Team Session Level Division Vault Bars Beam Floor AA
2023-01-27 King Arthur Invitational Midwest Elite Gymnastics Academy 1 7 Sr B 9.400 2 8.050 7 8.575 12 9.350 5T 35.375 4
2022-04-01 Level 6-7-8 State 2022 Midwest Elite Gymnastics Academy 08 7 Sr C 9.400 8T 8.800 12T 9.475 3T 9.675 3 37.350 4
2022-03-10 Lucky Invite Midwest Elite Gymnastics Academy A04 7 Older 9.050 7 8.700 4 8.500 14 9.350 5T 35.600 7
2022-02-18 Presidential Classic Midwest Elite Gymnastics Academy W7 7 L7 w7 gp4 9.200 2T 8.525 8 8.950 5 9.425 5 36.100 6
2022-01-21 UGA Invitational Midwest Elite Gymnastics Academy A12 7 Sr B 9.550 3 9.275 8 8.475 11 9.500 5 36.800 7
2022-01-14 2022 Bravo Classic Midwest Elite Gymnastics Academy 11B 7 Sr 9.050 9 8.750 10T 9.000 10 9.125 10 35.925 9T
2021-12-03 Flipstar's Home for the Holidays Midwest Elite Gymnastics Academy 2 7 Older 9.000 9 8.675 6 9.350 3 8.500 8 35.525 8
2021-04-23 Region 5 Level 7/8 Regional Championships Illinois State Team 03C 7 SR B1 9.175 17 8.900 13 8.650 20 9.350 19T 36.075 15T
2021-04-09 Illinois Level 7 8 State Championships Gymkhana Gymnastics Club and Dance Studio 4 7 Sr C 9.450 3 9.150 13T 9.425 6T 9.275 21T 37.300 6T
2021-03-12 LUCKY INVITATIONAL Gymkhana Gymnastics Club and Dance Studio B06 7 Sr 9.300 1 8.600 10 8.750 7 9.225 10T 35.875 4
2020-02-21 Kinetic Classic Gymkhana Gymnastics Club and Dance Studio 01 6 Middle 9.650 1 8.850 23T 9.150 22T 9.225 22T 36.875 7T
2020-02-07 Harley Meet Womens - Midwest Twisters Gymkhana Gymnastics Club and Dance Studio O04 6 Jr B 9.625 1 8.600 3T 8.800 5 9.400 2 36.425 2
2020-01-24 King Arthur Invitational Gymkhana Gymnastics Club and Dance Studio 2 6 SR 9.375 1 8.675 5 8.700 5 9.200 5 35.950 3
2020-01-10 St Jude Benefit Meet Gymkhana Gymnastics Club and Dance Studio 1B 6 Sr A 9.325 2 8.625 10 8.100 15 8.900 15 34.950 12
2019-11-08 Illinois Judges Cup Gymkhana Gymnastics Club and Dance Studio P3 5 All Ages 9.250 3 8.875 8T 8.875 10 9.325 4 36.325 2
2019-03-22 Illinois Gymnastics State Championships Gymkhana Gymnastics Club and Dance Studio 11 4 Sr B 9.500 3 9.325 10 9.800 1T 9.650 2T 38.275 3
2019-02-23 Kinetic Classic 2019 Gymkhana Gymnastics Club and Dance Studio 1 4 Older 8.900 5T 9.050 15 9.300 4T 9.225 3T 36.475 3
2019-02-08 Midwest Twisters Harley Meet Womens Gymkhana Gymnastics Club and Dance Studio T10 4 11 yrs. 8.850 3 8.100 6T 9.175 3 9.425 1 35.550 2
2019-01-18 CGA Coaches Spectacular Gymkhana Gymnastics Club and Dance Studio 9A 4 11B up 8.900 4 8.050 16 8.900 7 9.525 1 35.375 5
2019-01-11 St Jude Benefit Meet Gymkhana Gymnastics Club and Dance Studio 5A 4 Sr B 9.500 1 8.500 6 8.300 17 9.225 3T 35.525 4
2018-05-03 Illinois USA Gymnastics Level 3 State Championships Gymkhana Gymnastics Club and Dance Studio 5 3 Sr C 9.800 3 9.750 2 9.675 2T 9.675 3 38.900 2
2018-02-16 Big Classic Gymkhana Gymnastics Club and Dance Studio 6B 3 Child D 9.150 9 9.550 5 9.500 2T 9.650 1T 37.850 1
2018-02-08 Hal's Harley-Davidson Invite Womens Gymkhana Gymnastics Club and Dance Studio T07 3 10 yrs 9.150 8T 9.575 2T 9.125 4 9.400 2 37.250 3
2018-01-19 2018 Bravo Classic Gymkhana Gymnastics Club and Dance Studio 5B 3 Sr 9.175 10 9.600 1T 9.150 3T 9.175 5 37.100 3
2018-01-12 St Jude Benefit Meet Gymkhana Gymnastics Club and Dance Studio 6A 3 SrA 9.275 7 9.775 1 9.250 2 9.425 1 37.725 1